Time;durP1;ratioP1;P1;durP2;ratioP2;P2;SDS_P1;SDS_P2;PMS_P1;PMS_P2;Temp;Humidity;BMP_temperature;BMP_pressure;BME280_temperature;BME280_humidity;BME280_pressure;Samples;Min_cycle;Max_cycle;Signal;HPM_P1;HPM_P2
2022/03/19 00:02:21;;;;;;;22.40;20.00;;;6.60;99.90;;;;;;5038778;28;20456;-69
2022/03/19 00:04:48;;;;;;;23.13;19.60;;;6.50;99.90;;;;;;5038026;28;20478;-69
2022/03/19 00:07:16;;;;;;;21.47;19.57;;;6.40;99.90;;;;;;5033507;28;20474;-69
2022/03/19 00:09:43;;;;;;;21.37;19.37;;;6.30;99.90;;;;;;5036272;28;20553;-69
2022/03/19 00:12:14;;;;;;;26.13;19.90;;;6.20;99.90;;;;;;5040725;28;21014;-69
2022/03/19 00:14:41;;;;;;;23.20;20.70;;;6.20;99.90;;;;;;5035688;28;20498;-69
2022/03/19 00:17:10;;;;;;;21.70;19.60;;;6.10;99.90;;;;;;5038031;28;20555;-69
2022/03/19 00:19:37;;;;;;;22.17;20.27;;;6.10;99.90;;;;;;5040053;28;20456;-69
2022/03/19 00:22:04;;;;;;;23.40;21.10;;;6.00;99.90;;;;;;5028464;28;20460;-71
2022/03/19 00:24:43;;;;;;;23.43;20.87;;;5.90;99.90;;;;;;5048400;28;20491;-74
2022/03/19 00:27:11;;;;;;;25.07;20.57;;;5.90;99.90;;;;;;5032952;28;20468;-71
2022/03/19 00:29:38;;;;;;;22.03;19.90;;;5.90;99.90;;;;;;5031276;28;20453;-68
2022/03/19 00:32:05;;;;;;;25.00;20.73;;;5.80;99.90;;;;;;5041064;28;21120;-68
2022/03/19 00:34:34;;;;;;;22.20;20.30;;;5.80;99.90;;;;;;5035592;28;20472;-69
2022/03/19 00:37:01;;;;;;;23.53;21.00;;;5.80;99.90;;;;;;5039148;28;20534;-69
2022/03/19 00:39:28;;;;;;;21.80;20.20;;;5.80;99.90;;;;;;5041328;28;21002;-69
2022/03/19 00:41:55;;;;;;;22.73;20.53;;;5.80;99.90;;;;;;5036923;28;20980;-69
2022/03/19 00:44:23;;;;;;;22.90;20.87;;;5.80;99.90;;;;;;5039273;28;20482;-68
2022/03/19 00:46:50;;;;;;;22.30;20.30;;;5.80;99.90;;;;;;5046911;28;21042;-69
2022/03/19 00:49:18;;;;;;;22.83;20.73;;;5.80;99.90;;;;;;5040108;28;20461;-71
2022/03/19 00:51:46;;;;;;;23.63;21.33;;;5.80;99.90;;;;;;5043504;28;20463;-69
2022/03/19 00:54:15;;;;;;;22.93;20.93;;;5.70;99.90;;;;;;5041186;28;20695;-72
2022/03/19 00:56:42;;;;;;;24.00;21.90;;;5.70;99.90;;;;;;5040525;28;20465;-69
2022/03/19 00:59:09;;;;;;;21.93;20.03;;;5.70;99.90;;;;;;5040872;28;20505;-70
2022/03/19 01:01:36;;;;;;;23.57;21.37;;;5.60;99.90;;;;;;5041271;28;20524;-70
2022/03/19 01:04:03;;;;;;;23.53;21.40;;;5.50;99.90;;;;;;5048494;28;20826;-70
2022/03/19 01:06:30;;;;;;;21.83;20.10;;;5.50;99.90;;;;;;5045080;28;20492;-69
2022/03/19 01:08:58;;;;;;;21.60;19.80;;;5.50;99.90;;;;;;5039338;28;20832;-69
2022/03/19 01:11:25;;;;;;;22.63;20.70;;;5.40;99.90;;;;;;5038684;28;20465;-69
2022/03/19 01:13:54;;;;;;;23.13;20.53;;;5.40;99.90;;;;;;5041583;28;20499;-69
2022/03/19 01:16:20;;;;;;;22.40;20.47;;;5.40;99.90;;;;;;5036802;28;20833;-70
2022/03/19 01:18:48;;;;;;;22.77;20.60;;;5.40;99.90;;;;;;5041506;28;20474;-69
2022/03/19 01:21:16;;;;;;;21.80;20.00;;;5.40;99.90;;;;;;5036390;28;20457;-70
2022/03/19 01:23:43;;;;;;;25.97;23.20;;;5.40;99.90;;;;;;5040870;28;20468;-69
2022/03/19 01:26:11;;;;;;;23.50;21.50;;;5.40;99.90;;;;;;5039300;28;20491;-69
2022/03/19 01:28:38;;;;;;;22.53;20.53;;;5.30;99.90;;;;;;5034341;28;20473;-69
2022/03/19 01:31:05;;;;;;;22.90;20.70;;;5.30;99.90;;;;;;5049412;28;20787;-70
2022/03/19 01:33:32;;;;;;;22.23;20.33;;;5.20;99.90;;;;;;5041736;28;20515;-69
2022/03/19 01:35:59;;;;;;;23.27;21.33;;;5.20;99.90;;;;;;5039989;28;20459;-70
2022/03/19 01:38:26;;;;;;;23.33;20.93;;;5.20;99.90;;;;;;5044688;28;20486;-70
2022/03/19 01:40:52;;;;;;;23.37;21.00;;;5.20;99.90;;;;;;5040906;28;20469;-69
2022/03/19 01:43:21;;;;;;;24.20;22.00;;;5.10;99.90;;;;;;5042379;28;20455;-69
2022/03/19 01:45:49;;;;;;;24.57;22.47;;;5.10;99.90;;;;;;5034914;28;20492;-69
2022/03/19 01:48:16;;;;;;;25.00;22.20;;;5.00;99.90;;;;;;5038877;28;20466;-69
2022/03/19 01:50:43;;;;;;;23.37;21.17;;;5.00;99.90;;;;;;5043334;28;20488;-69
2022/03/19 01:53:11;;;;;;;22.60;20.37;;;4.90;99.90;;;;;;5041797;28;20468;-70
2022/03/19 01:55:39;;;;;;;23.80;21.60;;;4.90;99.90;;;;;;5041397;28;20568;-69
2022/03/19 01:58:06;;;;;;;24.10;21.93;;;4.90;99.90;;;;;;5041663;28;20456;-69
2022/03/19 02:00:34;;;;;;;23.73;21.50;;;4.90;99.90;;;;;;5044444;28;20473;-70
2022/03/19 02:03:03;;;;;;;24.00;21.50;;;4.90;99.90;;;;;;5035265;28;20472;-69
2022/03/19 02:05:30;;;;;;;23.13;21.30;;;4.90;99.90;;;;;;5042441;28;20908;-69
2022/03/19 02:07:57;;;;;;;24.23;21.93;;;4.80;99.90;;;;;;5040967;28;20898;-69
2022/03/19 02:10:24;;;;;;;26.33;22.67;;;4.70;99.90;;;;;;5043524;28;20460;-69
2022/03/19 02:12:52;;;;;;;24.40;22.07;;;4.70;99.90;;;;;;5041562;28;20469;-70
2022/03/19 02:15:19;;;;;;;24.30;21.80;;;4.70;99.90;;;;;;5040969;28;20818;-69
2022/03/19 02:17:47;;;;;;;24.67;22.27;;;4.70;99.90;;;;;;5036645;28;20468;-69
2022/03/19 02:20:14;;;;;;;24.00;21.90;;;4.60;99.90;;;;;;5040297;28;20597;-69
2022/03/19 02:25:34;;;;;;;24.50;22.10;;;4.60;99.90;;;;;;5040117;28;20830;-69
2022/03/19 02:25:35;;;;;;;24.77;22.10;;;4.50;99.90;;;;;;5034591;28;20487;-69
2022/03/19 02:28:02;;;;;;;24.23;22.00;;;4.50;99.90;;;;;;5033229;28;20563;-69
2022/03/19 02:30:29;;;;;;;25.70;23.10;;;4.60;99.90;;;;;;5044349;28;20455;-69
2022/03/19 02:32:57;;;;;;;24.70;22.43;;;4.60;99.90;;;;;;5040984;28;20486;-69
2022/03/19 02:35:24;;;;;;;23.20;21.30;;;4.60;99.90;;;;;;5040613;28;20461;-69
2022/03/19 02:37:51;;;;;;;24.77;22.40;;;4.60;99.90;;;;;;5041771;28;20484;-69
2022/03/19 02:40:19;;;;;;;25.67;21.70;;;4.50;99.90;;;;;;5035319;28;20478;-68
2022/03/19 02:42:50;;;;;;;25.30;23.10;;;4.50;99.90;;;;;;5039094;28;20470;-69
2022/03/19 02:45:17;;;;;;;25.67;22.97;;;4.50;99.90;;;;;;5037081;28;20483;-69
2022/03/19 02:48:00;;;;;;;24.03;21.93;;;4.40;99.90;;;;;;5042151;28;20471;-69
2022/03/19 02:50:28;;;;;;;25.17;22.87;;;4.40;99.90;;;;;;5041499;28;20492;-69
2022/03/19 02:52:57;;;;;;;24.27;22.00;;;4.40;99.90;;;;;;5038026;28;21200;-69
2022/03/19 02:55:24;;;;;;;26.50;23.50;;;4.30;99.90;;;;;;5043750;28;20554;-70
2022/03/19 02:57:52;;;;;;;25.20;22.90;;;4.30;99.90;;;;;;5039393;28;20459;-69
2022/03/19 03:00:20;;;;;;;24.83;22.73;;;4.30;99.90;;;;;;5042525;28;20468;-69
2022/03/19 03:02:47;;;;;;;26.47;24.07;;;4.30;99.90;;;;;;5042018;28;20465;-69
2022/03/19 03:05:15;;;;;;;28.93;23.10;;;4.30;99.90;;;;;;5042726;28;20483;-69
2022/03/19 03:07:42;;;;;;;24.27;21.97;;;4.30;99.90;;;;;;5045249;28;20460;-69
2022/03/19 03:10:09;;;;;;;25.17;22.87;;;4.40;99.90;;;;;;5035672;28;20457;-69
2022/03/19 03:12:37;;;;;;;24.33;22.13;;;4.30;99.90;;;;;;5039543;28;20550;-69
2022/03/19 03:15:06;;;;;;;25.83;23.40;;;4.30;99.90;;;;;;5041240;28;20469;-69
2022/03/19 03:17:35;;;;;;;26.10;23.53;;;4.20;99.90;;;;;;5040350;28;20467;-69
2022/03/19 03:20:02;;;;;;;24.67;22.23;;;4.20;99.90;;;;;;5036356;28;20548;-68
2022/03/19 03:22:31;;;;;;;25.83;23.40;;;4.20;99.90;;;;;;5039755;28;20833;-69
2022/03/19 03:24:58;;;;;;;26.27;23.53;;;4.20;99.90;;;;;;5043457;28;20497;-69
2022/03/19 03:27:25;;;;;;;26.40;24.10;;;4.10;99.90;;;;;;5039179;28;20499;-69
2022/03/19 03:29:52;;;;;;;27.07;24.40;;;4.10;99.90;;;;;;5035971;28;20468;-69
2022/03/19 03:32:20;;;;;;;27.50;25.13;;;4.10;99.90;;;;;;5045172;28;20491;-69
2022/03/19 03:34:47;;;;;;;26.87;24.17;;;4.00;99.90;;;;;;5044282;28;20466;-69
2022/03/19 03:37:17;;;;;;;27.40;24.90;;;4.00;99.90;;;;;;5039811;28;20756;-69
2022/03/19 03:39:45;;;;;;;33.80;25.17;;;4.00;99.90;;;;;;5038233;28;20474;-69
2022/03/19 03:42:12;;;;;;;27.50;25.00;;;3.90;99.90;;;;;;5030258;28;20963;-69
2022/03/19 03:44:41;;;;;;;28.40;25.40;;;4.00;99.90;;;;;;5040933;28;21109;-69
2022/03/19 03:47:10;;;;;;;28.77;25.93;;;4.00;99.90;;;;;;5042325;28;20488;-69
2022/03/19 03:49:38;;;;;;;27.50;24.80;;;3.90;99.90;;;;;;5044696;28;20460;-69
2022/03/19 03:52:07;;;;;;;30.30;25.80;;;3.90;99.90;;;;;;5039997;28;20514;-69
2022/03/19 03:54:34;;;;;;;27.83;25.00;;;3.80;99.90;;;;;;5035905;28;20460;-69
2022/03/19 03:57:00;;;;;;;28.00;24.97;;;3.80;99.90;;;;;;5041934;28;20471;-69
2022/03/19 03:59:30;;;;;;;27.97;25.27;;;3.80;99.90;;;;;;5040102;28;20468;-69
2022/03/19 04:01:57;;;;;;;28.10;25.30;;;3.70;99.90;;;;;;5043969;28;20457;-69
2022/03/19 04:04:24;;;;;;;27.50;24.93;;;3.70;99.90;;;;;;5044638;28;20525;-69
2022/03/19 04:06:52;;;;;;;27.17;24.67;;;3.70;99.90;;;;;;5034707;28;20487;-68
2022/03/19 04:09:19;;;;;;;28.37;25.50;;;3.70;99.90;;;;;;5038242;28;20460;-69
2022/03/19 04:11:46;;;;;;;28.87;26.30;;;3.70;99.90;;;;;;5040975;28;20472;-69
2022/03/19 04:14:12;;;;;;;28.70;25.80;;;3.70;99.90;;;;;;5041775;28;20460;-69
2022/03/19 04:16:39;;;;;;;29.83;26.57;;;3.70;99.90;;;;;;5040100;28;20452;-69
2022/03/19 04:19:06;;;;;;;30.77;26.80;;;3.70;99.90;;;;;;5038825;28;20474;-69
2022/03/19 04:21:33;;;;;;;28.70;25.87;;;3.70;99.90;;;;;;5038271;28;20486;-69
2022/03/19 04:24:02;;;;;;;31.23;25.13;;;3.70;99.90;;;;;;5033794;28;20464;-69
2022/03/19 04:26:29;;;;;;;28.47;25.97;;;3.70;99.90;;;;;;5036887;28;20487;-69
2022/03/19 04:28:56;;;;;;;31.17;28.37;;;3.70;99.90;;;;;;5043671;28;20891;-70
2022/03/19 04:31:25;;;;;;;28.37;26.03;;;3.70;99.90;;;;;;5040360;28;20517;-68
2022/03/19 04:33:51;;;;;;;30.27;27.13;;;3.70;99.90;;;;;;5034806;28;20484;-69
2022/03/19 04:36:37;;;;;;;30.20;27.10;;;3.70;99.90;;;;;;5040676;28;20472;-69
2022/03/19 04:39:07;;;;;;;33.67;27.97;;;3.80;99.90;;;;;;5041056;28;20542;-68
2022/03/19 04:41:36;;;;;;;30.70;27.73;;;3.80;99.90;;;;;;5044207;28;20817;-69
2022/03/19 04:44:03;;;;;;;29.27;26.37;;;3.80;99.90;;;;;;5045159;28;20910;-69
2022/03/19 04:46:30;;;;;;;31.07;27.83;;;3.80;99.90;;;;;;5039087;28;20850;-69
2022/03/19 04:48:57;;;;;;;30.37;27.37;;;3.80;99.90;;;;;;5035542;28;20461;-69
2022/03/19 04:51:32;;;;;;;32.20;27.93;;;3.70;99.90;;;;;;5038650;28;20468;-69
2022/03/19 04:54:00;;;;;;;30.20;27.53;;;3.70;99.90;;;;;;5041728;28;20587;-69
2022/03/19 04:56:31;;;;;;;30.77;28.00;;;3.70;99.90;;;;;;5039063;28;20895;-70
2022/03/19 04:59:00;;;;;;;29.73;27.03;;;3.70;99.90;;;;;;5034954;28;21210;-68
2022/03/19 05:01:28;;;;;;;30.53;27.83;;;3.70;99.90;;;;;;5031207;28;20481;-69
2022/03/19 05:03:55;;;;;;;31.90;28.70;;;3.80;99.90;;;;;;5004950;28;20472;-69
2022/03/19 05:06:22;;;;;;;30.70;27.53;;;3.80;99.90;;;;;;5007456;28;20489;-70
2022/03/19 05:11:12;;;;;;;32.50;27.27;;;3.80;99.90;;;;;;5005906;28;20824;-69
2022/03/19 05:11:37;;;;;;;32.53;29.10;;;3.90;99.90;;;;;;5004698;28;20553;-69
2022/03/19 05:14:04;;;;;;;30.43;27.33;;;3.80;99.90;;;;;;5005554;28;20465;-69
2022/03/19 05:16:32;;;;;;;28.33;25.93;;;3.80;99.90;;;;;;5005520;28;20473;-69
2022/03/19 05:18:59;;;;;;;29.80;26.70;;;3.90;99.90;;;;;;5006789;28;20563;-69
2022/03/19 05:21:27;;;;;;;33.87;30.37;;;3.90;99.90;;;;;;5007323;28;20476;-69
2022/03/19 05:23:54;;;;;;;31.30;28.43;;;3.90;99.90;;;;;;5005169;28;20464;-70
2022/03/19 05:26:20;;;;;;;32.07;28.90;;;3.90;99.90;;;;;;5021212;28;20492;-70
2022/03/19 05:28:49;;;;;;;32.03;28.33;;;3.90;99.90;;;;;;5037246;28;20486;-69
2022/03/19 05:31:16;;;;;;;30.80;27.73;;;3.90;99.90;;;;;;5040029;28;20636;-69
2022/03/19 05:36:27;;;;;;;30.67;27.80;;;4.00;99.90;;;;;;5010621;28;20471;-69
2022/03/19 05:38:54;;;;;;;32.23;29.27;;;4.00;99.90;;;;;;5009395;28;21077;-69
2022/03/19 05:41:21;;;;;;;33.77;30.47;;;4.00;99.90;;;;;;5009015;28;20471;-69
2022/03/19 05:43:49;;;;;;;34.47;28.37;;;4.00;99.90;;;;;;5010553;28;20982;-69
2022/03/19 05:46:16;;;;;;;31.77;28.43;;;3.80;99.90;;;;;;5009177;28;20535;-69
2022/03/19 05:48:43;;;;;;;32.43;29.17;;;3.80;99.90;;;;;;5009392;28;20496;-69
2022/03/19 05:51:10;;;;;;;33.07;29.97;;;3.90;99.90;;;;;;5010053;28;20558;-69
2022/03/19 05:53:40;;;;;;;31.23;28.10;;;3.80;99.90;;;;;;5008935;28;20540;-69
2022/03/19 05:56:07;;;;;;;32.10;29.10;;;3.90;99.90;;;;;;5009465;28;21006;-69
2022/03/19 05:58:34;;;;;;;31.90;28.90;;;3.90;99.90;;;;;;5010745;28;20465;-69
2022/03/19 06:01:02;;;;;;;30.37;27.63;;;4.00;99.90;;;;;;5009483;28;21410;-70
2022/03/19 06:03:30;;;;;;;31.83;28.73;;;3.90;99.90;;;;;;5008642;28;21091;-69
2022/03/19 06:05:57;;;;;;;30.83;27.77;;;3.90;99.90;;;;;;5007258;28;21405;-70
2022/03/19 06:08:24;;;;;;;37.63;29.30;;;4.00;99.90;;;;;;5007026;28;20999;-70
2022/03/19 06:10:50;;;;;;;34.57;28.93;;;4.10;99.90;;;;;;5007580;28;20473;-69
2022/03/19 06:13:17;;;;;;;30.90;28.03;;;4.10;99.90;;;;;;5008811;28;20469;-69
2022/03/19 06:15:44;;;;;;;29.73;26.87;;;4.20;99.90;;;;;;5009825;28;20456;-68
2022/03/19 06:18:12;;;;;;;30.13;27.40;;;4.20;99.90;;;;;;5007794;28;21027;-69
2022/03/19 06:20:39;;;;;;;30.33;27.50;;;4.20;99.90;;;;;;5012411;28;20469;-69
2022/03/19 06:23:06;;;;;;;30.10;27.20;;;4.30;99.90;;;;;;5037859;28;20977;-69
2022/03/19 06:25:34;;;;;;;29.73;27.00;;;4.40;99.90;;;;;;5037799;28;20461;-69
2022/03/19 06:28:01;;;;;;;31.80;28.63;;;4.40;99.90;;;;;;5020926;28;20594;-68
2022/03/19 06:30:31;;;;;;;29.50;26.90;;;4.60;99.90;;;;;;5008502;28;20464;-69
2022/03/19 06:32:59;;;;;;;31.67;27.87;;;4.70;99.90;;;;;;5009057;28;20488;-70
2022/03/19 06:38:17;;;;;;;31.27;27.93;;;4.80;99.90;;;;;;5009182;28;20507;-69
2022/03/19 06:40:44;;;;;;;31.33;27.70;;;4.90;99.90;;;;;;5008547;28;21009;-69
2022/03/19 06:43:11;;;;;;;29.97;27.37;;;4.90;99.90;;;;;;5006015;28;20989;-69
2022/03/19 06:45:38;;;;;;;30.40;27.50;;;5.00;99.90;;;;;;5006709;28;21802;-69
2022/03/19 06:48:05;;;;;;;31.23;28.13;;;5.20;99.90;;;;;;5007788;28;20492;-71
2022/03/19 06:50:34;;;;;;;28.50;25.90;;;5.30;99.90;;;;;;5024070;28;20484;-69
2022/03/19 06:53:03;;;;;;;28.97;26.20;;;5.40;99.90;;;;;;5006961;28;20474;-71
2022/03/19 06:55:30;;;;;;;29.40;26.07;;;5.50;99.90;;;;;;5005970;28;20468;-69
2022/03/19 06:57:57;;;;;;;31.07;27.90;;;5.60;99.90;;;;;;5023000;28;20962;-69
2022/03/19 07:00:24;;;;;;;29.33;26.73;;;5.60;99.90;;;;;;5038347;28;20463;-69
2022/03/19 07:02:53;;;;;;;25.90;23.60;;;5.70;99.90;;;;;;5017241;28;20467;-68
2022/03/19 07:05:21;;;;;;;28.67;25.97;;;5.80;99.90;;;;;;5006827;28;21138;-71
2022/03/19 07:07:49;;;;;;;25.63;23.20;;;5.90;99.90;;;;;;5007335;28;20496;-71
2022/03/19 07:10:18;;;;;;;26.17;24.00;;;6.00;99.90;;;;;;5007141;28;20460;-70
2022/03/19 07:12:46;;;;;;;33.93;24.00;;;6.20;99.90;;;;;;5005788;28;21139;-70
2022/03/19 07:15:14;;;;;;;28.77;26.03;;;6.40;99.90;;;;;;5007867;28;20502;-70
2022/03/19 07:17:43;;;;;;;25.37;22.97;;;6.40;99.90;;;;;;5007107;28;20527;-70
2022/03/19 07:20:11;;;;;;;26.20;21.43;;;6.50;99.90;;;;;;5006237;28;20491;-69
2022/03/19 07:22:49;;;;;;;28.17;23.20;;;6.70;99.90;;;;;;5007066;28;20469;-70
2022/03/19 07:25:16;;;;;;;25.77;23.17;;;6.80;99.90;;;;;;5006757;28;21030;-69
2022/03/19 07:27:44;;;;;;;24.47;22.10;;;6.80;99.90;;;;;;5005763;28;21121;-68
2022/03/19 07:30:12;;;;;;;23.50;21.03;;;6.90;99.90;;;;;;5006129;28;21051;-69
2022/03/19 07:32:39;;;;;;;24.80;22.43;;;7.10;99.90;;;;;;5005648;28;21172;-70
2022/03/19 07:35:07;;;;;;;25.03;22.60;;;7.20;99.90;;;;;;5007271;28;20465;-68
2022/03/19 07:37:34;;;;;;;24.97;22.63;;;7.20;99.90;;;;;;5007751;28;20502;-69
2022/03/19 07:40:03;;;;;;;24.57;22.17;;;7.30;99.90;;;;;;5006460;28;20466;-69
2022/03/19 07:42:29;;;;;;;25.70;23.20;;;7.30;99.90;;;;;;5005719;28;20514;-71
2022/03/19 07:44:55;;;;;;;22.57;20.87;;;7.40;99.90;;;;;;5006181;28;20773;-69
2022/03/19 07:47:22;;;;;;;25.37;20.80;;;7.40;99.90;;;;;;5006932;28;21018;-71
2022/03/19 07:49:49;;;;;;;24.10;21.70;;;7.50;99.90;;;;;;5004308;28;20476;-68
2022/03/19 07:52:16;;;;;;;23.30;21.43;;;7.70;99.90;;;;;;5006057;28;20474;-68
2022/03/19 07:54:43;;;;;;;22.30;20.70;;;7.80;99.90;;;;;;5006307;28;20470;-70
2022/03/19 07:57:11;;;;;;;24.03;21.67;;;7.90;99.90;;;;;;5005208;28;21277;-69
2022/03/19 07:59:38;;;;;;;22.83;20.90;;;7.90;99.90;;;;;;5005006;28;20594;-69
2022/03/19 08:02:06;;;;;;;23.33;21.40;;;7.90;99.90;;;;;;5005463;28;20473;-68
2022/03/19 08:04:33;;;;;;;22.13;20.20;;;8.00;99.90;;;;;;5006135;28;20551;-71
2022/03/19 08:07:00;;;;;;;23.47;21.30;;;8.10;99.90;;;;;;5006429;28;20505;-69
2022/03/19 08:09:27;;;;;;;23.20;21.30;;;8.20;99.90;;;;;;5005871;28;21032;-71
2022/03/19 08:11:54;;;;;;;22.20;20.43;;;8.30;99.90;;;;;;5006111;28;20606;-69
2022/03/19 08:14:23;;;;;;;22.20;20.40;;;8.50;99.90;;;;;;5005452;28;20468;-70
2022/03/19 08:16:50;;;;;;;21.57;19.70;;;8.50;99.90;;;;;;5006781;28;21612;-70
2022/03/19 08:19:19;;;;;;;25.17;22.77;;;8.60;99.90;;;;;;5005841;28;20454;-70
2022/03/19 08:21:46;;;;;;;21.67;20.10;;;8.60;99.90;;;;;;5006065;28;21020;-69
2022/03/19 08:24:13;;;;;;;22.63;20.73;;;8.70;99.90;;;;;;5007824;28;20467;-70
2022/03/19 08:26:40;;;;;;;22.63;20.73;;;8.80;99.90;;;;;;5005426;28;20483;-69
2022/03/19 08:29:07;;;;;;;22.57;20.27;;;9.00;99.90;;;;;;5006232;28;20876;-68
2022/03/19 08:31:35;;;;;;;22.50;20.60;;;9.10;99.90;;;;;;5005932;28;20481;-69
2022/03/19 08:34:02;;;;;;;20.60;18.97;;;9.30;99.90;;;;;;5012795;28;20463;-69
2022/03/19 08:36:29;;;;;;;21.83;20.10;;;9.30;99.90;;;;;;5013128;28;21227;-69
2022/03/19 08:41:40;;;;;;;20.60;18.70;;;9.40;99.90;;;;;;5013088;28;20683;-70
2022/03/19 08:44:07;;;;;;;20.27;18.87;;;9.60;99.90;;;;;;5012723;28;21066;-69
2022/03/19 08:46:35;;;;;;;20.20;18.50;;;9.50;99.90;;;;;;5011524;28;20803;-71
2022/03/19 08:49:02;;;;;;;21.13;19.43;;;9.60;99.90;;;;;;5012646;28;20481;-69
2022/03/19 08:51:41;;;;;;;20.40;18.90;;;9.60;99.90;;;;;;5012247;28;20464;-69
2022/03/19 08:54:09;;;;;;;20.50;18.87;;;9.50;99.90;;;;;;5012884;28;20455;-69
2022/03/19 08:56:36;;;;;;;20.93;19.20;;;9.60;99.90;;;;;;5013014;28;20955;-70
2022/03/19 08:59:04;;;;;;;20.47;18.70;;;9.70;99.90;;;;;;5012789;28;20981;-71
2022/03/19 09:01:31;;;;;;;20.93;19.33;;;9.90;99.90;;;;;;5012902;28;20557;-69
2022/03/19 09:04:00;;;;;;;20.80;18.93;;;10.00;99.90;;;;;;5012661;28;20456;-71
2022/03/19 09:06:27;;;;;;;22.13;19.97;;;10.00;99.90;;;;;;5013268;28;20453;-69
2022/03/19 09:08:54;;;;;;;20.50;19.13;;;10.20;99.90;;;;;;5016635;28;20499;-72
2022/03/19 09:11:23;;;;;;;21.50;19.47;;;10.30;99.90;;;;;;5014866;28;20508;-69
2022/03/19 09:13:51;;;;;;;22.00;20.00;;;10.20;99.90;;;;;;5016702;28;20492;-68
2022/03/19 09:16:19;;;;;;;21.17;19.67;;;10.20;99.90;;;;;;5016777;28;20461;-70
2022/03/19 09:18:47;;;;;;;21.80;19.90;;;10.50;99.90;;;;;;5016027;28;20482;-69
2022/03/19 09:21:15;;;;;;;21.90;20.20;;;10.40;99.90;;;;;;5015784;28;20538;-70
2022/03/19 09:23:45;;;;;;;22.17;20.37;;;10.50;99.90;;;;;;5016423;28;20467;-69
2022/03/19 09:26:11;;;;;;;23.77;20.50;;;10.50;99.90;;;;;;5019348;28;20883;-69
2022/03/19 09:28:38;;;;;;;22.67;19.67;;;10.50;99.90;;;;;;5015763;28;20822;-68
2022/03/19 09:31:05;;;;;;;22.03;20.53;;;10.60;99.90;;;;;;5014530;28;20451;-69
2022/03/19 09:33:32;;;;;;;21.87;19.83;;;10.60;99.90;;;;;;5010194;28;21138;-69
2022/03/19 09:36:01;;;;;;;21.80;19.77;;;10.80;99.90;;;;;;5008250;28;20469;-69
2022/03/19 09:38:29;;;;;;;22.47;20.63;;;10.70;99.90;;;;;;5008605;28;20495;-69
2022/03/19 09:40:56;;;;;;;21.17;19.37;;;10.70;99.90;;;;;;5008556;28;20468;-69
2022/03/19 09:43:23;;;;;;;20.93;19.03;;;10.90;99.90;;;;;;5008576;28;20465;-69
2022/03/19 09:45:50;;;;;;;21.10;19.43;;;10.90;99.90;;;;;;5007996;28;20772;-70
2022/03/19 09:48:17;;;;;;;20.67;18.80;;;11.30;99.90;;;;;;5017354;28;21021;-68
2022/03/19 09:50:44;;;;;;;20.23;18.50;;;12.00;99.90;;;;;;5036115;28;20472;-69
2022/03/19 09:53:11;;;;;;;19.93;18.07;;;12.90;99.90;;;;;;5037469;28;20929;-69
2022/03/19 09:55:41;;;;;;;19.30;17.47;;;13.90;99.90;;;;;;5021267;28;20467;-69
2022/03/19 09:58:07;;;;;;;19.63;17.73;;;14.90;99.90;;;;;;5025417;28;20555;-69
2022/03/19 10:00:36;;;;;;;18.13;16.83;;;15.30;99.90;;;;;;5011936;28;20989;-69
2022/03/19 10:03:04;;;;;;;19.23;17.80;;;15.50;99.90;;;;;;4991669;28;20473;-69
2022/03/19 10:11:04;;;;;;;17.53;16.13;;;14.60;99.90;;;;;;5002412;28;20573;-71
2022/03/19 10:13:31;;;;;;;17.93;16.60;;;15.10;99.90;;;;;;5004157;28;20467;-70
2022/03/19 10:15:57;;;;;;;18.60;17.17;;;15.40;99.90;;;;;;5005470;28;20468;-69
2022/03/19 10:18:28;;;;;;;18.33;16.87;;;15.80;99.90;;;;;;5004949;28;21016;-69
2022/03/19 10:20:55;;;;;;;17.43;16.13;;;15.80;99.20;;;;;;5003116;28;20962;-70
2022/03/19 10:23:33;;;;;;;18.57;17.00;;;15.40;99.10;;;;;;5004375;28;20576;-69
2022/03/19 10:26:01;;;;;;;16.37;15.27;;;15.60;99.40;;;;;;5003751;28;20460;-69
2022/03/19 10:28:34;;;;;;;17.50;16.33;;;15.80;99.50;;;;;;5003720;28;20493;-69
2022/03/19 10:31:01;;;;;;;18.23;16.90;;;15.60;98.40;;;;;;5003626;28;21064;-69
2022/03/19 10:33:30;;;;;;;18.00;16.50;;;14.90;99.50;;;;;;5003553;28;21108;-70
2022/03/19 10:36:07;;;;;;;18.73;17.00;;;15.50;99.80;;;;;;5004551;28;20951;-69
2022/03/19 10:38:43;;;;;;;17.80;16.40;;;15.70;98.70;;;;;;5003612;28;20578;-70
2022/03/19 10:41:11;;;;;;;19.07;17.20;;;16.10;96.50;;;;;;5002394;28;20467;-69
2022/03/19 10:43:45;;;;;;;17.30;15.67;;;16.20;97.00;;;;;;5003528;28;20470;-70
2022/03/19 10:46:12;;;;;;;68.37;20.20;;;16.10;94.40;;;;;;5003661;28;20978;-69
2022/03/19 10:48:39;;;;;;;33.23;17.17;;;16.70;95.10;;;;;;5002967;28;20502;-70
2022/03/19 10:51:09;;;;;;;20.23;16.00;;;17.70;94.90;;;;;;5002760;28;21383;-69
2022/03/19 10:53:37;;;;;;;22.87;15.10;;;18.10;87.30;;;;;;5003166;28;21873;-70
2022/03/19 10:56:06;;;;;;;17.83;15.93;;;17.40;79.20;;;;;;5002767;28;20527;-70
2022/03/19 10:58:33;;;;;;;16.30;13.40;;;17.40;78.10;;;;;;5002867;28;22928;-70
2022/03/19 11:01:02;;;;;;;17.20;15.63;;;17.00;71.10;;;;;;5002901;28;20456;-69
2022/03/19 11:03:31;;;;;;;15.83;14.53;;;17.10;71.90;;;;;;5003520;28;20461;-70
2022/03/19 11:06:02;;;;;;;15.03;14.03;;;17.80;70.90;;;;;;5003423;28;21122;-70
2022/03/19 11:08:30;;;;;;;15.67;14.40;;;18.10;66.10;;;;;;5001639;28;20495;-70
2022/03/19 11:10:59;;;;;;;15.70;14.60;;;18.10;64.00;;;;;;5010065;28;20483;-69
2022/03/19 11:13:30;;;;;;;14.83;13.93;;;17.90;66.40;;;;;;5029335;28;20975;-70
2022/03/19 11:16:01;;;;;;;14.50;13.60;;;18.50;64.40;;;;;;5032085;28;20501;-70
2022/03/19 11:18:30;;;;;;;15.60;14.70;;;18.50;57.10;;;;;;5002246;28;20468;-71
2022/03/19 11:20:58;;;;;;;16.20;15.23;;;18.60;58.10;;;;;;5002387;28;21303;-70
2022/03/19 11:23:31;;;;;;;16.27;14.57;;;18.90;57.30;;;;;;5002350;28;20832;-70
2022/03/19 11:26:02;;;;;;;15.30;14.50;;;19.00;56.50;;;;;;5003225;28;21030;-71
2022/03/19 11:28:31;;;;;;;15.10;14.30;;;19.10;54.00;;;;;;5003993;28;20530;-71
2022/03/19 11:31:03;;;;;;;15.27;14.37;;;19.00;49.50;;;;;;5002949;28;20464;-70
2022/03/19 11:33:32;;;;;;;15.93;14.73;;;18.70;49.90;;;;;;5002603;28;20578;-70
2022/03/19 11:36:09;;;;;;;14.83;14.03;;;18.60;48.80;;;;;;5003063;28;20581;-70
2022/03/19 11:38:41;;;;;;;15.27;14.23;;;18.40;48.90;;;;;;4970047;28;20829;-71
2022/03/19 11:41:25;;;;;;;17.97;16.53;;;18.50;49.90;;;;;;4962778;28;20864;-70
2022/03/19 11:44:16;;;;;;;16.13;15.23;;;18.40;54.80;;;;;;4963605;28;20489;-70
2022/03/19 11:46:55;;;;;;;18.63;15.63;;;18.30;56.30;;;;;;4964176;28;20465;-71
2022/03/19 11:49:52;;;;;;;17.10;15.90;;;17.80;54.60;;;;;;4963257;28;21198;-71
2022/03/19 11:52:40;;;;;;;16.73;15.43;;;18.30;54.00;;;;;;4963216;28;21065;-70
2022/03/19 11:55:10;;;;;;;16.70;15.50;;;17.90;54.40;;;;;;4964219;28;20552;-71
2022/03/19 11:57:55;;;;;;;16.53;15.33;;;17.70;53.80;;;;;;4964117;28;21051;-71
2022/03/19 12:00:23;;;;;;;16.70;15.60;;;17.70;53.60;;;;;;4963406;28;20940;-70
2022/03/19 12:03:04;;;;;;;17.57;15.87;;;18.10;52.70;;;;;;4963534;28;20466;-72
2022/03/19 12:05:33;;;;;;;16.83;15.33;;;18.30;53.90;;;;;;4963626;28;20837;-70
2022/03/19 12:08:06;;;;;;;17.20;15.70;;;17.80;51.80;;;;;;4963800;28;20470;-71
2022/03/19 12:10:38;;;;;;;17.40;16.20;;;17.80;52.00;;;;;;4963155;28;20479;-70
2022/03/19 12:13:35;;;;;;;16.80;15.80;;;17.50;52.50;;;;;;4963831;28;20497;-71
2022/03/19 12:16:04;;;;;;;17.23;16.33;;;17.20;51.60;;;;;;4963457;28;21315;-70
2022/03/19 12:18:33;;;;;;;17.53;16.30;;;17.00;50.60;;;;;;4963298;28;20990;-71
2022/03/19 12:21:03;;;;;;;16.47;15.47;;;17.20;50.60;;;;;;4961767;28;20584;-71
2022/03/19 12:23:41;;;;;;;17.03;15.70;;;17.20;50.40;;;;;;4962996;28;20473;-70
2022/03/19 12:26:10;;;;;;;17.70;16.40;;;17.10;49.90;;;;;;4963553;28;21443;-71
2022/03/19 12:28:37;;;;;;;17.00;15.63;;;17.20;50.10;;;;;;4961222;28;20506;-71
2022/03/19 12:31:06;;;;;;;16.20;15.00;;;17.60;49.70;;;;;;4961021;28;20585;-70
2022/03/19 12:33:33;;;;;;;16.73;15.60;;;17.10;49.40;;;;;;4961680;28;20588;-70
2022/03/19 12:36:12;;;;;;;16.77;15.57;;;17.50;50.20;;;;;;4962118;28;21091;-71
2022/03/19 12:38:38;;;;;;;16.27;15.33;;;17.70;49.90;;;;;;4995074;28;21026;-72
2022/03/19 12:43:50;;;;;;;15.30;14.40;;;18.10;50.20;;;;;;5004910;28;21168;-71
2022/03/19 12:46:23;;;;;;;16.10;15.10;;;18.00;49.00;;;;;;5003810;28;20604;-71
2022/03/19 12:48:51;;;;;;;15.67;14.43;;;18.10;49.10;;;;;;5004828;28;20487;-70
2022/03/19 12:51:25;;;;;;;16.47;14.83;;;17.60;47.20;;;;;;5005578;28;20476;-71
2022/03/19 12:53:52;;;;;;;15.33;14.23;;;17.90;47.30;;;;;;5006469;28;20472;-71
2022/03/19 12:56:21;;;;;;;16.30;15.30;;;17.40;48.70;;;;;;5006550;28;20572;-71
2022/03/19 12:58:49;;;;;;;16.20;15.23;;;17.40;46.90;;;;;;5004700;28;20448;-71